Time;durP1;ratioP1;P1;durP2;ratioP2;P2;SDS_P1;SDS_P2;PMS_P1;PMS_P2;Temp;Humidity;BMP_temperature;BMP_pressure;BME280_temperature;BME280_humidity;BME280_pressure;Samples;Min_cycle;Max_cycle;Signal;HPM_P1;HPM_P2
2022/01/31 00:09:16;;;;;;;21.95;9.48;;;2.00;99.90;;;;;;20750355;28;20065;-77
2022/01/31 00:19:16;;;;;;;27.23;10.10;;;1.90;99.90;;;;;;20750101;28;20045;-77
2022/01/31 00:29:17;;;;;;;18.15;9.43;;;1.90;99.90;;;;;;20750702;28;20053;-75
2022/01/31 00:39:18;;;;;;;21.63;9.15;;;1.90;99.90;;;;;;20762926;28;20030;-75
2022/01/31 00:59:29;;;;;;;25.35;8.30;;;2.10;99.90;;;;;;20746481;28;20042;-77
2022/01/31 01:09:29;;;;;;;17.98;7.43;;;2.20;99.90;;;;;;20746351;28;20498;-77
2022/01/31 01:19:31;;;;;;;27.33;6.78;;;2.40;99.90;;;;;;20759689;28;20506;-77
2022/01/31 01:29:33;;;;;;;10.90;3.75;;;2.60;99.90;;;;;;20759345;28;20088;-77
2022/01/31 01:39:34;;;;;;;9.50;3.03;;;3.00;99.90;;;;;;20759267;28;20030;-77
2022/01/31 01:49:34;;;;;;;11.52;3.75;;;3.10;99.90;;;;;;20743652;28;20056;-77
2022/01/31 01:59:37;;;;;;;14.43;4.90;;;3.20;99.90;;;;;;20741659;28;20556;-77
2022/01/31 02:10:06;;;;;;;12.65;4.15;;;3.00;99.90;;;;;;20727110;28;20140;-77
2022/01/31 02:20:13;;;;;;;15.68;3.60;;;3.00;99.90;;;;;;20761815;28;20030;-77
2022/01/31 02:30:17;;;;;;;11.30;3.08;;;3.00;99.90;;;;;;20791307;22;20037;-74
2022/01/31 02:40:21;;;;;;;10.43;3.15;;;3.00;99.90;;;;;;20920285;28;20032;-74
2022/01/31 02:50:22;;;;;;;16.80;3.00;;;3.20;99.90;;;;;;20918605;28;20171;-74
2022/01/31 03:00:24;;;;;;;8.65;2.72;;;3.30;99.90;;;;;;20917446;28;20518;-74
2022/01/31 03:10:44;;;;;;;9.20;2.90;;;3.30;99.90;;;;;;20918030;28;20037;-74
2022/01/31 03:20:50;;;;;;;16.83;2.97;;;3.30;99.90;;;;;;20916057;28;20032;-74
2022/01/31 03:30:51;;;;;;;15.02;2.63;;;3.20;99.90;;;;;;20915088;28;20119;-75
2022/01/31 03:40:52;;;;;;;;;;;3.40;99.90;;;;;;20914551;28;20029;-75
2022/01/31 03:50:53;;;;;;;10.30;2.27;;;3.50;99.90;;;;;;20913581;28;19999;-74
2022/01/31 04:00:55;;;;;;;6.75;2.50;;;3.50;99.90;;;;;;20912695;28;20823;-75
2022/01/31 04:10:56;;;;;;;7.15;2.28;;;3.60;99.90;;;;;;20913433;28;20053;-74
2022/01/31 04:20:57;;;;;;;17.08;2.55;;;3.70;99.90;;;;;;20912430;28;20037;-74
2022/01/31 04:31:13;;;;;;;11.63;2.42;;;3.80;99.90;;;;;;20911683;28;20037;-74
2022/01/31 04:41:15;;;;;;;8.90;2.47;;;3.90;99.90;;;;;;20911116;28;20041;-75
2022/01/31 04:51:15;;;;;;;15.15;2.20;;;4.00;99.90;;;;;;20909540;28;20049;-75
2022/01/31 05:01:16;;;;;;;;;;;4.00;99.90;;;;;;20898675;28;20116;-75
2022/01/31 05:11:17;;;;;;;8.77;2.65;;;4.00;99.90;;;;;;20826448;28;19909;-75
2022/01/31 05:21:18;;;;;;;13.85;3.75;;;4.00;99.90;;;;;;20825655;28;20037;-75
2022/01/31 05:31:18;;;;;;;;;;;4.10;99.90;;;;;;20824551;28;20049;-75
2022/01/31 05:41:20;;;;;;;9.67;2.80;;;4.20;99.90;;;;;;20825044;28;20007;-75
2022/01/31 05:51:22;;;;;;;8.35;2.35;;;4.70;99.90;;;;;;20823395;28;20794;-75
2022/01/31 06:01:23;;;;;;;8.82;2.30;;;4.90;99.90;;;;;;20831118;28;20047;-75
2022/01/31 06:11:25;;;;;;;8.38;2.55;;;5.00;99.90;;;;;;20840171;28;20061;-75
2022/01/31 06:21:26;;;;;;;8.02;2.05;;;5.00;99.90;;;;;;20839400;28;20030;-75
2022/01/31 06:31:27;;;;;;;11.73;2.28;;;5.10;99.90;;;;;;20838006;28;20025;-74
2022/01/31 06:41:28;;;;;;;9.02;2.53;;;5.10;99.90;;;;;;20808935;28;20037;-75
2022/01/31 06:51:30;;;;;;;5.85;2.00;;;5.10;99.90;;;;;;20834898;28;20057;-74
2022/01/31 07:01:31;;;;;;;6.95;2.25;;;5.20;99.90;;;;;;20832855;28;20233;-74
2022/01/31 07:11:37;;;;;;;;;;;5.20;99.90;;;;;;20830958;28;20038;-74
2022/01/31 07:21:46;;;;;;;2.95;1.70;;;5.10;99.90;;;;;;20834282;28;19913;-74
2022/01/31 07:31:48;;;;;;;3.08;1.63;;;5.10;99.90;;;;;;20832068;28;20111;-74
2022/01/31 07:41:49;;;;;;;4.97;1.85;;;5.00;99.90;;;;;;20833059;28;20453;-74
2022/01/31 07:51:50;;;;;;;;;;;4.70;99.90;;;;;;20831217;28;20033;-75
2022/01/31 08:01:51;;;;;;;2.50;1.30;;;4.60;99.90;;;;;;20830936;28;19909;-75
2022/01/31 08:11:51;;;;;;;1.52;1.10;;;4.70;99.90;;;;;;20831019;28;20040;-75
2022/01/31 08:21:54;;;;;;;;;;;4.50;99.90;;;;;;20829797;28;20029;-75
2022/01/31 08:31:57;;;;;;;6.60;1.73;;;4.50;99.90;;;;;;20844778;22;19927;-73
2022/01/31 08:41:58;;;;;;;1.35;1.10;;;4.50;99.90;;;;;;20883787;23;20372;-74
2022/01/31 08:51:59;;;;;;;1.75;0.95;;;4.60;99.90;;;;;;20879727;28;20120;-74
2022/01/31 09:02:05;;;;;;;;;;;4.60;99.90;;;;;;20947582;28;20029;-73
2022/01/31 09:12:08;;;;;;;0.93;0.73;;;4.60;99.90;;;;;;20927461;28;19923;-75
2022/01/31 09:22:09;;;;;;;1.23;0.80;;;4.60;99.90;;;;;;20888240;28;20041;-74
2022/01/31 09:32:12;;;;;;;;;;;4.70;99.90;;;;;;20888623;28;20028;-74
2022/01/31 09:42:15;;;;;;;;;;;4.90;99.90;;;;;;20900775;28;19959;-75
2022/01/31 09:52:16;;;;;;;0.75;0.68;;;5.10;99.90;;;;;;20874496;28;19919;-76
2022/01/31 10:02:18;;;;;;;;;;;5.00;99.90;;;;;;20906186;28;20495;-75
2022/01/31 10:22:31;;;;;;;0.50;0.50;;;4.60;99.90;;;;;;20912528;28;20037;-75
2022/01/31 10:32:35;;;;;;;1.13;0.73;;;4.40;99.90;;;;;;20962864;28;20068;-76
2022/01/31 10:53:03;;;;;;;1.10;0.65;;;3.90;99.90;;;;;;20899420;28;20120;-75
2022/01/31 11:03:31;;;;;;;2.38;0.77;;;4.00;99.90;;;;;;20898127;28;20052;-76
2022/01/31 11:13:34;;;;;;;1.48;0.68;;;5.00;99.90;;;;;;20906846;28;20032;-76
2022/01/31 11:23:39;;;;;;;1.83;0.98;;;5.70;99.90;;;;;;20879602;28;20055;-76
2022/01/31 11:33:41;;;;;;;1.95;1.35;;;4.80;99.90;;;;;;20897361;28;20120;-76
2022/01/31 11:43:46;;;;;;;2.47;1.40;;;4.40;99.90;;;;;;20893202;28;20036;-75
2022/01/31 11:53:47;;;;;;;1.50;0.95;;;4.20;99.90;;;;;;20898216;28;20430;-76
2022/01/31 12:03:54;;;;;;;2.30;0.95;;;4.10;99.90;;;;;;20893873;28;20033;-76
2022/01/31 12:14:01;;;;;;;0.45;0.45;;;4.40;99.90;;;;;;20893629;28;20044;-76
2022/01/31 12:24:10;;;;;;;1.80;0.60;;;2.90;99.90;;;;;;20910913;28;20039;-74
2022/01/31 12:34:17;;;;;;;0.50;0.50;;;3.30;99.90;;;;;;20911331;28;20036;-75
2022/01/31 12:44:34;;;;;;;6.05;2.65;;;3.70;99.90;;;;;;20909465;28;20040;-75
2022/01/31 12:54:36;;;;;;;2.50;0.77;;;3.90;99.90;;;;;;20906394;28;20036;-75
2022/01/31 13:04:38;;;;;;;0.82;0.60;;;3.90;99.90;;;;;;20865879;28;20087;-75
2022/01/31 13:14:50;;;;;;;2.65;0.70;;;4.10;99.90;;;;;;20908433;28;20480;-75
2022/01/31 13:24:56;;;;;;;1.27;0.80;;;4.00;99.90;;;;;;20908156;28;20035;-74
2022/01/31 13:35:03;;;;;;;0.80;0.70;;;4.00;99.90;;;;;;20907696;28;20075;-75
2022/01/31 13:45:25;;;;;;;6.93;0.68;;;4.00;99.90;;;;;;20907245;28;20036;-75
2022/01/31 13:55:27;;;;;;;2.22;0.70;;;4.40;99.90;;;;;;20872559;28;20029;-77
2022/01/31 14:05:28;;;;;;;2.03;0.63;;;4.40;99.90;;;;;;20906445;28;20036;-75
2022/01/31 14:15:36;;;;;;;;;;;4.50;99.90;;;;;;20888817;28;20129;-76
2022/01/31 14:25:49;;;;;;;1.65;0.80;;;5.40;99.90;;;;;;20917985;28;19909;-75
2022/01/31 14:35:59;;;;;;;0.75;0.68;;;4.40;99.90;;;;;;20920756;28;20553;-76
2022/01/31 14:56:20;;;;;;;2.67;0.82;;;4.40;99.90;;;;;;20919478;28;20037;-75
2022/01/31 15:06:21;;;;;;;2.30;0.70;;;6.60;99.90;;;;;;20900983;28;20045;-75
2022/01/31 15:16:27;;;;;;;1.67;0.75;;;5.00;99.90;;;;;;20918042;28;20294;-75
2022/01/31 15:26:28;;;;;;;3.95;0.80;;;4.40;99.90;;;;;;20899371;28;20037;-76
2022/01/31 15:36:29;;;;;;;4.70;1.27;;;4.20;99.90;;;;;;20896455;28;20036;-76
2022/01/31 15:46:30;;;;;;;;;;;4.10;99.90;;;;;;20914014;28;20503;-75
2022/01/31 15:56:31;;;;;;;1.90;1.20;;;3.70;99.90;;;;;;20912896;28;19936;-75
2022/01/31 16:06:32;;;;;;;4.95;1.30;;;3.70;99.90;;;;;;20895147;28;20086;-76
2022/01/31 16:16:32;;;;;;;;;;;3.70;99.90;;;;;;20912628;28;20479;-76
2022/01/31 16:26:34;;;;;;;2.42;0.98;;;3.50;99.90;;;;;;20910151;28;20389;-76
2022/01/31 16:36:35;;;;;;;2.80;1.45;;;3.20;99.90;;;;;;20910942;28;20094;-75
2022/01/31 16:46:39;;;;;;;3.38;1.23;;;3.20;99.90;;;;;;20909725;28;20029;-75
2022/01/31 16:56:39;;;;;;;3.08;1.27;;;3.20;99.90;;;;;;20909896;28;20037;-75
2022/01/31 17:06:40;;;;;;;4.50;1.30;;;3.30;99.90;;;;;;20908830;28;20398;-75
2022/01/31 17:16:41;;;;;;;5.55;1.60;;;3.40;99.90;;;;;;20908712;28;20037;-75
2022/01/31 17:26:42;;;;;;;6.97;2.20;;;3.40;99.90;;;;;;20908319;28;20443;-76
2022/01/31 17:36:44;;;;;;;6.25;1.67;;;3.40;99.90;;;;;;20907462;28;20036;-75
2022/01/31 17:46:46;;;;;;;12.57;1.83;;;3.30;99.90;;;;;;20907451;28;20167;-76
2022/01/31 17:56:47;;;;;;;4.28;1.20;;;3.20;99.90;;;;;;20912999;28;20037;-76
2022/01/31 18:06:48;;;;;;;6.35;1.80;;;2.70;99.90;;;;;;20923240;28;20037;-76
2022/01/31 18:16:49;;;;;;;4.35;2.20;;;2.60;99.90;;;;;;20922046;28;20033;-76
2022/01/31 18:26:51;;;;;;;5.82;2.10;;;2.50;99.90;;;;;;20901972;28;20033;-75
2022/01/31 18:36:52;;;;;;;9.80;2.50;;;2.50;99.90;;;;;;20918235;28;20029;-75
2022/01/31 18:46:54;;;;;;;9.02;2.75;;;2.40;99.90;;;;;;20918656;28;20179;-76
2022/01/31 18:56:55;;;;;;;7.35;2.22;;;2.10;99.90;;;;;;20900095;28;20135;-75
2022/01/31 19:06:56;;;;;;;12.07;2.67;;;2.00;99.90;;;;;;20916505;28;20484;-75
2022/01/31 19:16:57;;;;;;;10.55;3.15;;;1.90;99.90;;;;;;20916464;28;20029;-76
2022/01/31 19:26:57;;;;;;;12.63;3.78;;;1.90;99.90;;;;;;20916317;28;20079;-75
2022/01/31 19:36:58;;;;;;;15.45;3.55;;;1.60;99.90;;;;;;20914285;28;20029;-75
2022/01/31 19:46:59;;;;;;;9.60;3.10;;;1.40;99.90;;;;;;20896590;28;20033;-75
2022/01/31 19:57:00;;;;;;;5.03;2.72;;;1.30;99.90;;;;;;20914173;28;20048;-75
2022/01/31 20:07:01;;;;;;;8.30;4.18;;;1.10;99.90;;;;;;20913485;28;20029;-74
2022/01/31 20:17:02;;;;;;;10.30;3.60;;;1.00;99.90;;;;;;20912596;28;20028;-74
2022/01/31 20:27:04;;;;;;;11.90;4.47;;;1.10;99.90;;;;;;20911911;28;20049;-74
2022/01/31 20:37:11;;;;;;;7.97;3.80;;;1.10;99.90;;;;;;20910937;28;20032;-74
2022/01/31 20:47:11;;;;;;;17.65;4.20;;;1.00;99.90;;;;;;20907620;28;20033;-74
2022/01/31 20:57:13;;;;;;;10.48;3.60;;;0.90;99.90;;;;;;20909080;28;20048;-74
2022/01/31 21:07:14;;;;;;;14.00;5.32;;;0.80;99.90;;;;;;20891093;28;20033;-74
2022/01/31 21:17:16;;;;;;;10.18;3.08;;;0.80;99.90;;;;;;20890235;28;20124;-74
2022/01/31 21:27:21;;;;;;;7.45;3.17;;;0.80;99.90;;;;;;20908057;28;20507;-75
2022/01/31 21:37:22;;;;;;;5.50;2.70;;;0.90;99.90;;;;;;20889125;28;20115;-74
2022/01/31 21:47:23;;;;;;;15.82;4.03;;;0.90;99.90;;;;;;20889238;28;20118;-74
2022/01/31 21:57:27;;;;;;;11.82;3.80;;;1.00;99.90;;;;;;20887140;28;20033;-73
2022/01/31 22:07:28;;;;;;;6.75;3.50;;;0.90;99.90;;;;;;20900879;28;20495;-74
2022/01/31 22:17:28;;;;;;;12.65;3.47;;;0.90;99.90;;;;;;20891872;28;20058;-73
2022/01/31 22:27:29;;;;;;;16.25;3.03;;;0.90;99.90;;;;;;20939846;28;20091;-74
2022/01/31 22:37:30;;;;;;;9.38;4.18;;;1.00;99.90;;;;;;20947802;28;20043;-74
2022/01/31 22:47:31;;;;;;;14.90;4.75;;;1.00;99.90;;;;;;20896002;28;20545;-74
2022/01/31 22:57:32;;;;;;;19.33;6.03;;;0.90;99.90;;;;;;20880743;28;20115;-73
2022/01/31 23:07:35;;;;;;;18.52;5.10;;;0.90;99.90;;;;;;20915950;28;20097;-74
2022/01/31 23:17:45;;;;;;;18.95;5.03;;;0.80;99.90;;;;;;20910351;28;20043;-74
